Blue River, KY (41607)

6:15 PM EDT on September 19, 2014 (GMT -0400)
Middle Creek Battlefield Area | Change Station
CLOSE
Current Station
Personal Weather Station
Location: Prestonsburg, KY
Elevation: 728 ft
Nearby Weather Stations

Elev 728 ft 37.66 °N, 82.83 °W | Updated 49 seconds ago

Partly Cloudy
Partly Cloudy
74.5 °F
Feels Like 76 °F
N
0.0
Wind Variable Wind from North
Gusts 0.0 mph

Today
High -- | Low -- °F
--% Chance of Precip.
Yesterday
High -- | Low -- °F
Precip. -- in
7:16 AM 7:32 PM
Waning Crescent, 16% visible
Pressure 30.10 in
Visibility 10.0 miles
Clouds Clear
Heat Index 76 °F
Dew Point 64 °F
Humidity 71%
Rainfall 0.00 in
Snow Depth Not available.
UV 1 out of 12
Pollen 5.30 out of 12
Air Quality Not available.
Flu Activity Not available.
METAR KSJS 192155Z AUTO 01003KT 10SM CLR 25/18 A3010 RMK AO2 T02480179

More Conditions Fewer Conditions

Pressure 30.10 in
Visibility 10.0 miles
Clouds Clear
Heat Index 76 °F
Dew Point 64 °F
Humidity 71%
Rainfall 0.00 in
Snow Depth Not available.
UV 1 out of 12
Pollen 5.30 out of 12
Air Quality Not available.
Flu Activity Not available.
METAR KSJS 192155Z AUTO 01003KT 10SM CLR 25/18 A3010 RMK AO2 T02480179

More Conditions Fewer Conditions

10-Day Weather Forecast

Almanac

Astronomy

Sep. 19, 2014 Rise Set
Actual Time 7:16 AM EDT 7:32 PM EDT
Civil Twilight 6:50 AM EDT 7:59 PM EDT
Nautical Twilight 6:19 AM EDT 8:29 PM EDT
Astronomical Twilight 5:48 AM EDT 9:00 PM EDT
Moon 3:04 AM EDT 4:57 PM EDT
Length of Visible Light 13h 08m
Length of Day
12h 16m
Tomorrow will be 2m 25s shorter.
Waning Crescent, 16% of the Moon is Illuminated
Today
Waning Crescent
Sep 24
New
Oct 1
First Quarter
Oct 8
Full
Oct 15
Last Quarter

Today's Extremes

State Highs State Lows

Community

WunderPhotos

Upload Photos

1,754,719 photos uploaded!

WunderBlogs® & News

Nearby

Snow Depth

Station Depth Elevation
No new snow has been reported.

Earthquake Activity

City Distance Mag. Time & Date
No recent earthquake activity has been reported nearby.
Minimum magnitude displayed is 2.5.

Coastal Water Temperatures

Place Temperature
No Stations Reporting

Nearby Weather Stations